This is the latest recevied weather packets stored in our database for station/object DG8SF-13. If no packets are shown the sender has not sent any weather packets the latest 10 day(s).
| Time | Temp. | Humidity | Pressure | Rain* | Wind** | Luminosity | Snow |
|---|---|---|---|---|---|---|---|
| 1787760065 | 27.78° C | 51% | 1014.5 hPa | 0 mm | - | - | - |
| 1787759728 | 27.78° C | 50% | 1014.5 hPa | 0 mm | - | - | - |
| 1787759405 | 28.33° C | 49% | 1014.4 hPa | 0 mm | - | - | - |
| 1787759093 | 28.33° C | 49% | 1014.5 hPa | 0 mm | - | - | - |
| 1787758758 | 27.78° C | 50% | 1014.5 hPa | 0 mm | - | - | - |
| 1787758444 | 28.33° C | 49% | 1014.5 hPa | 0 mm | - | - | - |
| 1787758110 | 28.33° C | 50% | 1014.6 hPa | 0 mm | - | - | - |
| 1787757796 | 28.33° C | 50% | 1014.5 hPa | 0 mm | - | - | - |
| 1787757484 | 28.33° C | 48% | 1014.6 hPa | 0 mm | - | - | - |
| 1787757172 | 28.33° C | 49% | 1014.6 hPa | 0 mm | - | - | - |
| 1787756849 | 28.33° C | 49% | 1014.8 hPa | 0 mm | - | - | - |
| 1787756535 | 28.33° C | 50% | 1014.9 hPa | 0 mm | - | - | - |
| 1787756225 | 28.33° C | 50% | 1014.9 hPa | 0 mm | - | - | - |
| 1787755911 | 28.33° C | 50% | 1015 hPa | 0 mm | - | - | - |
| 1787755589 | 28.33° C | 49% | 1015.1 hPa | 0 mm | - | - | - |
| 1787755276 | 28.89° C | 48% | 1015.3 hPa | 0 mm | - | - | - |
| 1787754953 | 28.89° C | 49% | 1015.3 hPa | 0 mm | - | - | - |
| 1787754640 | 30° C | 47% | 1015.3 hPa | 0 mm | - | - | - |
| 1787754329 | 28.89° C | 51% | 1015.3 hPa | 0 mm | - | - | - |
| 1787753992 | 28.33° C | 51% | 1015.4 hPa | 0 mm | - | - | - |
| 1787753680 | 28.33° C | 52% | 1015.3 hPa | 0 mm | - | - | - |
| 1787753368 | 28.33° C | 50% | 1015.3 hPa | 0 mm | - | - | - |
| 1787753063 | 28.33° C | 52% | 1015.3 hPa | 0 mm | - | - | - |
| 1787752744 | 28.33° C | 51% | 1015.5 hPa | 0 mm | - | - | - |
| 1787752433 | 28.89° C | 50% | 1015.4 hPa | 0 mm | - | - | - |
* Rain latest hour (hover to see other rain measurements)
** Current wind speed in m/s (hover to see current wind gust speed)